createdAt,value
2023-03-01T00:01:51.465Z,1.20
2023-03-01T00:07:19.424Z,1.10
2023-03-01T00:12:48.524Z,1.10
2023-03-01T00:34:41.128Z,1.20
2023-03-01T00:40:11.281Z,1.20
2023-03-01T00:56:36.582Z,1.10
2023-03-01T01:02:05.649Z,1.30
2023-03-01T01:07:33.780Z,1.10
2023-03-01T01:13:01.950Z,1.10
2023-03-01T01:24:01.038Z,1.30
2023-03-01T01:29:29.083Z,1.00
2023-03-01T01:34:57.039Z,1.10
2023-03-01T01:40:24.937Z,0.90
2023-03-01T01:46:07.665Z,0.70
2023-03-01T01:51:43.590Z,0.90
2023-03-01T01:57:29.066Z,0.90
2023-03-01T02:03:02.560Z,0.90
2023-03-01T02:08:38.331Z,0.90
2023-03-01T02:14:07.112Z,0.70
2023-03-01T02:20:08.035Z,0.80
2023-03-01T02:26:10.172Z,0.80
2023-03-01T02:31:44.540Z,0.80
2023-03-01T02:37:21.629Z,0.80
2023-03-01T02:42:56.500Z,2.80
2023-03-01T02:54:08.905Z,0.70
2023-03-01T02:59:43.567Z,0.60
2023-03-01T03:05:17.307Z,0.60
2023-03-01T03:16:15.373Z,0.60
2023-03-01T03:21:44.350Z,0.60
2023-03-01T03:32:41.641Z,0.50
2023-03-01T03:38:18.686Z,0.50
2023-03-01T03:43:46.700Z,0.50
2023-03-01T03:49:14.704Z,0.70
2023-03-01T03:54:42.551Z,0.40
2023-03-01T04:00:13.892Z,0.30
2023-03-01T04:11:29.356Z,0.30
2023-03-01T04:39:00.874Z,0.10
2023-03-01T04:44:32.168Z,0.10
2023-03-01T04:50:00.957Z,-0.20
2023-03-01T04:55:29.805Z,0.00
2023-03-01T05:00:59.072Z,-0.20
2023-03-01T05:11:54.907Z,-0.10
2023-03-01T05:22:52.872Z,-0.20
2023-03-01T05:28:21.494Z,-0.40
2023-03-01T05:39:19.146Z,-0.30
2023-03-01T05:44:49.525Z,-0.50
2023-03-01T05:50:20.064Z,-0.40
2023-03-01T05:55:48.597Z,-0.30
2023-03-01T06:17:47.681Z,-0.40
2023-03-01T06:34:16.325Z,0.30
2023-03-01T07:12:36.086Z,-0.80
2023-03-01T07:18:04.139Z,1.80
2023-03-01T07:23:33.145Z,-0.20
2023-03-01T07:29:03.801Z,-0.20
2023-03-01T07:40:03.359Z,0.00
2023-03-01T07:45:31.241Z,0.00
2023-03-01T07:51:05.038Z,0.30
2023-03-01T08:02:01.588Z,0.50
2023-03-01T08:18:33.101Z,0.20
2023-03-01T08:24:00.955Z,0.90
2023-03-01T08:29:32.949Z,0.80
2023-03-01T08:40:29.133Z,1.30
2023-03-01T08:45:57.169Z,1.20
2023-03-01T08:51:26.983Z,1.40
2023-03-01T08:56:56.833Z,1.40
2023-03-01T09:18:54.807Z,1.90
2023-03-01T09:24:25.756Z,2.00
2023-03-01T09:35:23.737Z,2.10
2023-03-01T09:52:33.605Z,2.10
2023-03-01T09:58:30.802Z,2.10
2023-03-01T10:04:07.532Z,2.10
2023-03-01T10:09:38.401Z,2.30
2023-03-01T10:15:18.265Z,2.40
2023-03-01T10:26:34.531Z,2.60
2023-03-01T10:32:20.123Z,2.80
2023-03-01T10:38:10.621Z,3.00
2023-03-01T10:43:57.642Z,3.00
2023-03-01T10:49:27.292Z,2.60
2023-03-01T10:55:39.685Z,3.20
2023-03-01T11:01:28.231Z,3.30
2023-03-01T11:07:01.957Z,3.20
2023-03-01T11:23:48.550Z,3.50
2023-03-01T11:29:49.235Z,3.80
2023-03-01T11:35:31.734Z,4.10
2023-03-01T11:41:22.441Z,4.30
2023-03-01T11:47:09.754Z,4.50
2023-03-01T11:53:08.753Z,4.50
2023-03-01T11:58:53.625Z,4.80
2023-03-01T12:05:00.223Z,5.00
2023-03-01T12:10:36.263Z,5.60
2023-03-01T12:16:39.904Z,5.70
2023-03-01T12:22:15.960Z,5.90
2023-03-01T12:28:17.314Z,5.60
2023-03-01T12:34:26.276Z,5.70
2023-03-01T12:40:45.248Z,5.70
2023-03-01T12:46:48.719Z,5.80
2023-03-01T12:52:45.526Z,6.00
2023-03-01T12:58:58.346Z,6.30
2023-03-01T13:10:42.991Z,6.30
2023-03-01T13:16:30.338Z,6.60
2023-03-01T13:33:29.725Z,9.10
2023-03-01T13:44:39.976Z,9.00
2023-03-01T13:50:20.756Z,10.10
2023-03-01T13:56:03.320Z,11.00
2023-03-01T14:01:36.138Z,11.90
2023-03-01T14:07:26.097Z,13.00
2023-03-01T14:13:15.804Z,14.40
2023-03-01T14:19:07.140Z,15.70
2023-03-01T14:24:42.453Z,16.30
2023-03-01T14:30:24.205Z,15.90
2023-03-01T14:35:59.519Z,15.40
2023-03-01T14:41:32.646Z,16.10
2023-03-01T14:47:03.257Z,15.90
2023-03-01T14:52:44.051Z,16.00
2023-03-01T14:58:23.831Z,16.20
2023-03-01T15:03:52.613Z,16.10
2023-03-01T15:20:37.136Z,16.30
2023-03-01T15:26:38.917Z,15.30
2023-03-01T15:32:32.341Z,14.50
2023-03-01T15:38:01.687Z,14.10
2023-03-01T15:43:45.944Z,13.20
2023-03-01T15:49:54.292Z,12.40
2023-03-01T15:55:30.782Z,12.00
2023-03-01T16:01:02.678Z,11.20
2023-03-01T16:06:34.898Z,10.90
2023-03-01T16:17:30.932Z,10.20
2023-03-01T16:23:06.600Z,10.10
2023-03-01T16:39:31.741Z,8.30
2023-03-01T16:44:59.610Z,7.80
2023-03-01T16:50:29.790Z,7.30
2023-03-01T16:56:01.240Z,7.30
2023-03-01T17:01:38.513Z,6.60
2023-03-01T17:07:10.606Z,6.30
2023-03-01T17:40:11.961Z,4.30
2023-03-01T17:45:41.255Z,4.70
2023-03-01T17:51:12.040Z,3.80
2023-03-01T17:56:42.691Z,3.70
2023-03-01T18:02:13.643Z,3.50
2023-03-01T18:18:45.203Z,3.20
2023-03-01T18:29:43.564Z,3.00
2023-03-01T18:40:49.001Z,2.70
2023-03-01T18:46:20.442Z,3.30
2023-03-01T18:51:50.771Z,2.60
2023-03-01T18:57:22.439Z,2.30
2023-03-01T19:02:50.561Z,2.30
2023-03-01T19:08:19.612Z,2.30
2023-03-01T19:24:51.027Z,1.90
2023-03-01T19:46:51.061Z,1.70
2023-03-01T19:52:20.373Z,1.60
2023-03-01T20:19:52.774Z,1.30
2023-03-01T20:31:06.526Z,1.50
2023-03-01T20:36:39.436Z,1.30
2023-03-01T20:42:07.583Z,1.20
2023-03-01T20:47:35.802Z,1.20
2023-03-01T22:16:25.578Z,1.20
2023-03-01T22:21:56.724Z,1.20
2023-03-01T22:49:57.550Z,1.10
2023-03-01T22:55:28.501Z,1.10
2023-03-01T23:12:06.827Z,1.00
2023-03-01T23:17:34.990Z,1.00
2023-03-01T23:23:03.308Z,1.00
2023-03-01T23:33:59.934Z,1.10
2023-03-01T23:39:29.957Z,0.80
2023-03-01T23:44:57.821Z,0.70
2023-03-01T23:50:26.102Z,0.80
2023-03-01T23:55:55.217Z,0.80
